createdAt,value
2017-06-26T00:00:21.533Z,17.43
2017-06-26T00:01:21.522Z,17.5
2017-06-26T00:02:21.821Z,17.5
2017-06-26T00:03:21.499Z,17.41
2017-06-26T00:04:21.487Z,17.43
2017-06-26T00:05:21.479Z,17.47
2017-06-26T00:06:21.780Z,17.35
2017-06-26T00:07:21.458Z,17.38
2017-06-26T00:08:21.754Z,17.4
2017-06-26T00:09:21.437Z,17.3
2017-06-26T00:10:21.732Z,17.36
2017-06-26T00:11:21.726Z,17.36
2017-06-26T00:12:21.721Z,17.36
2017-06-26T00:13:21.698Z,17.38
2017-06-26T00:14:21.688Z,17.33
2017-06-26T00:15:21.680Z,17.33
2017-06-26T00:16:21.696Z,17.41
2017-06-26T00:17:21.657Z,17.33
2017-06-26T00:18:21.650Z,17.5
2017-06-26T00:19:21.323Z,17.48
2017-06-26T00:20:21.625Z,17.47
2017-06-26T00:21:21.298Z,17.47
2017-06-26T00:22:21.297Z,17.54
2017-06-26T00:23:21.601Z,17.57
2017-06-26T00:24:21.586Z,17.62
2017-06-26T00:25:21.582Z,17.55
2017-06-26T00:26:21.251Z,17.59
2017-06-26T00:27:21.235Z,17.57
2017-06-26T00:28:21.281Z,17.66
2017-06-26T00:29:20.901Z,17.63
2017-06-26T00:30:21.203Z,17.63
2017-06-26T00:31:21.196Z,17.66
2017-06-26T00:32:20.869Z,17.69
2017-06-26T00:33:21.486Z,17.66
2017-06-26T00:34:21.159Z,17.73
2017-06-26T00:35:21.462Z,17.73
2017-06-26T00:36:21.451Z,17.79
2017-06-26T00:37:21.438Z,17.76
2017-06-26T00:38:21.426Z,17.74
2017-06-26T00:39:21.105Z,17.71
2017-06-26T00:40:21.408Z,17.74
2017-06-26T00:41:21.396Z,17.74
2017-06-26T00:42:21.072Z,17.79
2017-06-26T00:43:20.751Z,17.81
2017-06-26T00:44:21.364Z,17.81
2017-06-26T00:45:21.041Z,17.85
2017-06-26T00:46:21.339Z,17.81
2017-06-26T00:47:21.017Z,17.82
2017-06-26T00:48:21.007Z,17.82
2017-06-26T00:49:20.997Z,17.85
2017-06-26T00:50:20.675Z,17.85
2017-06-26T00:51:20.976Z,17.81
2017-06-26T00:52:21.279Z,17.88
2017-06-26T00:53:20.639Z,17.81
2017-06-26T00:54:20.996Z,17.89
2017-06-26T00:55:21.247Z,17.82
2017-06-26T00:56:20.609Z,17.94
2017-06-26T00:57:21.225Z,17.91
2017-06-26T00:58:20.900Z,17.85
2017-06-26T00:59:20.914Z,17.91
2017-06-26T01:00:20.879Z,17.91
2017-06-26T01:01:20.554Z,17.97
2017-06-26T01:02:21.167Z,18
2017-06-26T01:03:20.844Z,18.03
2017-06-26T01:04:21.142Z,18.03
2017-06-26T01:05:21.140Z,17.99
2017-06-26T01:06:20.816Z,18
2017-06-26T01:07:21.131Z,18.03
2017-06-26T01:08:20.789Z,17.99
2017-06-26T01:09:20.467Z,17.92
2017-06-26T01:10:20.775Z,18.07
2017-06-26T01:11:21.074Z,18.09
2017-06-26T01:12:21.061Z,18.13
2017-06-26T01:13:20.741Z,18.07
2017-06-26T01:14:20.420Z,18.1
2017-06-26T01:15:20.718Z,18.04
2017-06-26T01:16:20.701Z,18.09
2017-06-26T01:17:20.381Z,18.12
2017-06-26T01:18:21.001Z,18.04
2017-06-26T01:19:20.361Z,18.09
2017-06-26T01:20:20.662Z,18.09
2017-06-26T01:21:20.652Z,18.06
2017-06-26T01:22:20.956Z,18.07
2017-06-26T01:23:20.946Z,18.09
2017-06-26T01:24:20.627Z,18.13
2017-06-26T01:25:20.922Z,18.07
2017-06-26T01:26:20.600Z,18.04
2017-06-26T01:27:20.901Z,18.06
2017-06-26T01:28:20.266Z,18.15
2017-06-26T01:29:20.565Z,18.18
2017-06-26T01:30:20.558Z,18.13
2017-06-26T01:31:20.861Z,18.04
2017-06-26T01:32:20.540Z,18.03
2017-06-26T01:33:20.836Z,18.1
2017-06-26T01:34:20.511Z,18.13
2017-06-26T01:35:20.820Z,18.07
2017-06-26T01:36:20.805Z,18.15
2017-06-26T01:37:20.787Z,18.18
2017-06-26T01:38:20.470Z,18.18
2017-06-26T01:39:21.175Z,18.07
2017-06-26T01:40:20.764Z,18.06
2017-06-26T01:41:20.441Z,18.06
2017-06-26T01:42:20.428Z,18.09
2017-06-26T01:43:20.729Z,18.13
2017-06-26T01:44:20.715Z,18.12
2017-06-26T01:45:20.082Z,18.06
2017-06-26T01:46:20.386Z,18.09
2017-06-26T01:47:20.060Z,18.04
2017-06-26T01:48:20.367Z,18.13
2017-06-26T01:49:20.349Z,18.17
2017-06-26T01:50:20.349Z,18.09
2017-06-26T01:51:20.021Z,18.13
2017-06-26T01:52:20.007Z,18.09
2017-06-26T01:53:20.624Z,18.19
2017-06-26T01:54:20.609Z,18.18
2017-06-26T01:55:20.602Z,18.12
2017-06-26T01:56:20.593Z,18.09
2017-06-26T01:57:20.581Z,18.15
2017-06-26T01:58:19.942Z,18.17
2017-06-26T01:59:20.558Z,18.07
2017-06-26T02:00:20.549Z,18.09
2017-06-26T02:01:19.912Z,18.17
2017-06-26T02:02:20.535Z,18.17
2017-06-26T02:03:20.522Z,18.18
2017-06-26T02:04:19.882Z,18.15
2017-06-26T02:05:20.183Z,18.12
2017-06-26T02:06:20.177Z,18.13
2017-06-26T02:07:19.851Z,18.09
2017-06-26T02:08:19.839Z,18.07
2017-06-26T02:09:20.141Z,18.12
2017-06-26T02:10:20.442Z,18.15
2017-06-26T02:11:19.810Z,18.09
2017-06-26T02:12:20.425Z,18.1
2017-06-26T02:13:20.112Z,18.09
2017-06-26T02:14:20.089Z,18.17
2017-06-26T02:15:19.761Z,18.12
2017-06-26T02:16:20.383Z,18.15
2017-06-26T02:17:20.365Z,18.15
2017-06-26T02:18:20.360Z,18.18
2017-06-26T02:19:20.038Z,18.12
2017-06-26T02:20:20.335Z,18.13
2017-06-26T02:21:20.012Z,18.15
2017-06-26T02:22:20.007Z,18.1
2017-06-26T02:23:20.311Z,18.1
2017-06-26T02:24:19.673Z,18.19
2017-06-26T02:25:19.974Z,18.15
2017-06-26T02:26:19.959Z,18.13
2017-06-26T02:27:20.012Z,18.18
2017-06-26T02:28:19.938Z,18.17
2017-06-26T02:29:20.236Z,18.09
2017-06-26T02:30:20.228Z,18.15
2017-06-26T02:31:19.908Z,18.12
2017-06-26T02:32:19.585Z,18.15
2017-06-26T02:33:19.893Z,18.19
2017-06-26T02:34:19.875Z,18.12
2017-06-26T02:35:19.547Z,18.15
2017-06-26T02:36:19.542Z,18.07
2017-06-26T02:37:20.158Z,18.07
2017-06-26T02:38:20.147Z,18.07
2017-06-26T02:39:19.818Z,18.12
2017-06-26T02:40:19.810Z,18.09
2017-06-26T02:41:19.800Z,18.12
2017-06-26T02:42:20.105Z,18.09
2017-06-26T02:43:19.776Z,18.07
2017-06-26T02:44:19.764Z,18.07
2017-06-26T02:45:20.071Z,18.1
2017-06-26T02:46:19.431Z,18.06
2017-06-26T02:47:19.423Z,18.12
2017-06-26T02:48:19.724Z,18.09
2017-06-26T02:49:19.400Z,18.1
2017-06-26T02:50:19.392Z,18.15
2017-06-26T02:51:19.692Z,18.1
2017-06-26T02:52:19.997Z,18.15
2017-06-26T02:53:19.984Z,18.06
2017-06-26T02:54:19.661Z,18.12
2017-06-26T02:55:19.649Z,18.1
2017-06-26T02:56:19.955Z,18.09
2017-06-26T02:57:19.681Z,18.1
2017-06-26T02:58:19.304Z,18.12
2017-06-26T02:59:19.919Z,18.12
2017-06-26T03:00:19.600Z,18.12
2017-06-26T03:01:19.585Z,18.1
2017-06-26T03:02:19.891Z,18.04
2017-06-26T03:03:19.579Z,18.1
2017-06-26T03:04:19.553Z,18.12
2017-06-26T03:05:19.544Z,18.07
2017-06-26T03:06:19.533Z,18.13
2017-06-26T03:07:19.832Z,18.06
2017-06-26T03:08:19.511Z,18.12
2017-06-26T03:09:19.811Z,18.12
2017-06-26T03:10:19.178Z,18.09
2017-06-26T03:11:19.481Z,18.07
2017-06-26T03:12:19.779Z,18.13
2017-06-26T03:13:19.769Z,18.07
2017-06-26T03:14:19.765Z,18.13
2017-06-26T03:15:19.451Z,18
2017-06-26T03:16:19.426Z,17.95
2017-06-26T03:17:19.726Z,17.92
2017-06-26T03:18:19.451Z,17.99
2017-06-26T03:19:19.703Z,18.07
2017-06-26T03:20:19.697Z,18.09
2017-06-26T03:21:19.686Z,18.06
2017-06-26T03:22:19.675Z,18
2017-06-26T03:23:19.353Z,17.95
2017-06-26T03:24:19.027Z,17.92
2017-06-26T03:25:19.643Z,18.1
2017-06-26T03:26:19.318Z,18.1
2017-06-26T03:27:19.311Z,18.03
2017-06-26T03:28:19.298Z,18.07
2017-06-26T03:29:19.598Z,18.07
2017-06-26T03:30:19.273Z,17.97
2017-06-26T03:31:19.272Z,18.07
2017-06-26T03:32:19.261Z,18.09
2017-06-26T03:33:19.247Z,18.12
2017-06-26T03:34:19.544Z,17.97
2017-06-26T03:35:19.537Z,18.07
2017-06-26T03:36:19.530Z,18.13
2017-06-26T03:37:19.518Z,17.92
2017-06-26T03:38:19.199Z,17.95
2017-06-26T03:39:19.182Z,18.02
2017-06-26T03:40:19.482Z,17.92
2017-06-26T03:41:19.158Z,17.95
2017-06-26T03:42:19.149Z,18
2017-06-26T03:43:19.139Z,18
2017-06-26T03:44:19.129Z,17.92
2017-06-26T03:45:19.430Z,18.02
2017-06-26T03:46:19.108Z,18
2017-06-26T03:47:19.406Z,17.91
2017-06-26T03:48:19.395Z,17.88
2017-06-26T03:49:19.075Z,17.94
2017-06-26T03:50:19.064Z,17.92
2017-06-26T03:51:19.054Z,17.92
2017-06-26T03:52:19.360Z,17.92
2017-06-26T03:53:19.410Z,17.88
2017-06-26T03:54:19.339Z,17.91
2017-06-26T03:55:19.012Z,17.89
2017-06-26T03:56:19.002Z,17.92
2017-06-26T03:57:18.985Z,17.88
2017-06-26T03:58:18.669Z,17.91
2017-06-26T03:59:18.965Z,17.91
2017-06-26T04:00:18.959Z,17.97
2017-06-26T04:01:18.944Z,17.95
2017-06-26T04:02:18.931Z,17.88
2017-06-26T04:03:18.610Z,17.84
2017-06-26T04:04:19.226Z,17.92
2017-06-26T04:05:18.903Z,17.84
2017-06-26T04:06:19.250Z,17.92
2017-06-26T04:07:18.882Z,17.87
2017-06-26T04:08:18.870Z,17.94
2017-06-26T04:09:18.859Z,17.99
2017-06-26T04:10:19.160Z,17.95
2017-06-26T04:11:18.840Z,17.92
2017-06-26T04:12:19.143Z,17.94
2017-06-26T04:13:19.131Z,17.91
2017-06-26T04:14:18.811Z,17.87
2017-06-26T04:15:18.792Z,17.82
2017-06-26T04:16:18.784Z,17.97
2017-06-26T04:17:19.084Z,17.84
2017-06-26T04:18:18.457Z,17.94
2017-06-26T04:19:18.755Z,17.88
2017-06-26T04:20:18.743Z,17.89
2017-06-26T04:21:18.729Z,17.97
2017-06-26T04:22:18.722Z,17.97
2017-06-26T04:23:18.721Z,17.94
2017-06-26T04:24:19.010Z,18.03
2017-06-26T04:25:18.374Z,17.94
2017-06-26T04:26:18.992Z,17.88
2017-06-26T04:27:18.353Z,17.95
2017-06-26T04:28:18.973Z,17.91
2017-06-26T04:29:18.644Z,17.87
2017-06-26T04:30:18.951Z,17.95
2017-06-26T04:31:18.629Z,17.91
2017-06-26T04:32:18.938Z,17.88
2017-06-26T04:33:18.607Z,17.97
2017-06-26T04:34:18.910Z,17.91
2017-06-26T04:35:18.588Z,17.97
2017-06-26T04:36:18.890Z,18
2017-06-26T04:37:18.881Z,18.02
2017-06-26T04:38:18.552Z,18.03
2017-06-26T04:39:18.541Z,18.03
2017-06-26T04:40:18.266Z,17.97
2017-06-26T04:41:18.523Z,17.99
2017-06-26T04:42:18.516Z,18.03
2017-06-26T04:43:18.185Z,18.04
2017-06-26T04:44:18.491Z,18.03
2017-06-26T04:45:18.794Z,17.94
2017-06-26T04:46:18.776Z,17.95
2017-06-26T04:47:18.143Z,18
2017-06-26T04:48:18.761Z,18.04
2017-06-26T04:49:18.433Z,17.95
2017-06-26T04:50:18.423Z,17.97
2017-06-26T04:51:18.413Z,18.04
2017-06-26T04:52:18.405Z,18.12
2017-06-26T04:53:18.078Z,18.06
2017-06-26T04:54:18.382Z,18.13
2017-06-26T04:55:18.686Z,18.12
2017-06-26T04:56:18.361Z,18.15
2017-06-26T04:57:18.357Z,18.1
2017-06-26T04:58:18.344Z,18.1
2017-06-26T04:59:18.332Z,18.17
2017-06-26T05:00:18.636Z,18.15
2017-06-26T05:01:18.617Z,18.18
2017-06-26T05:02:18.305Z,18.09
2017-06-26T05:03:18.291Z,18.12
2017-06-26T05:04:18.597Z,18.24
2017-06-26T05:05:18.580Z,18.15
2017-06-26T05:06:18.257Z,18.19
2017-06-26T05:07:18.562Z,18.21
2017-06-26T05:08:18.237Z,18.21
2017-06-26T05:09:18.230Z,18.21
2017-06-26T05:10:18.529Z,18.27
2017-06-26T05:11:17.895Z,18.27
2017-06-26T05:12:18.511Z,18.27
2017-06-26T05:13:18.503Z,18.28
2017-06-26T05:14:18.181Z,18.27
2017-06-26T05:15:18.479Z,18.21
2017-06-26T05:16:18.152Z,18.29
2017-06-26T05:17:18.146Z,18.33
2017-06-26T05:18:18.136Z,18.31
2017-06-26T05:19:18.127Z,18.28
2017-06-26T05:20:17.808Z,18.28
2017-06-26T05:21:18.103Z,18.36
2017-06-26T05:22:17.799Z,18.36
2017-06-26T05:23:18.400Z,18.37
2017-06-26T05:24:18.383Z,18.36
2017-06-26T05:25:18.118Z,18.36
2017-06-26T05:26:17.745Z,18.39
2017-06-26T05:27:18.044Z,18.42
2017-06-26T05:28:18.042Z,18.34
2017-06-26T05:29:18.341Z,18.39
2017-06-26T05:30:18.013Z,18.37
2017-06-26T05:31:18.003Z,18.42
2017-06-26T05:32:18.001Z,18.39
2017-06-26T05:33:17.988Z,18.37
2017-06-26T05:34:18.290Z,18.36
2017-06-26T05:35:17.966Z,18.42
2017-06-26T05:36:18.281Z,18.39
2017-06-26T05:37:18.257Z,18.37
2017-06-26T05:38:17.930Z,18.37
2017-06-26T05:39:18.241Z,18.33
2017-06-26T05:40:18.116Z,18.29
2017-06-26T05:41:17.906Z,18.27
2017-06-26T05:42:17.890Z,18.24
2017-06-26T05:43:17.885Z,18.19
2017-06-26T05:44:18.187Z,18.12
2017-06-26T05:45:18.174Z,18.12
2017-06-26T05:46:18.166Z,18.09
2017-06-26T05:47:18.205Z,18
2017-06-26T05:48:18.159Z,17.94
2017-06-26T05:49:18.141Z,17.92
2017-06-26T05:50:17.808Z,18
2017-06-26T05:51:18.115Z,18
2017-06-26T05:52:18.106Z,18.15
2017-06-26T05:53:18.113Z,18.09
2017-06-26T05:54:18.084Z,18.17
2017-06-26T05:55:17.761Z,18.13
2017-06-26T05:56:18.087Z,18.13
2017-06-26T05:57:17.742Z,18.19
2017-06-26T05:58:18.046Z,18.18
2017-06-26T05:59:17.721Z,18.21
2017-06-26T06:00:17.712Z,18.15
2017-06-26T06:01:17.703Z,18.22
2017-06-26T06:02:18.009Z,18.17
2017-06-26T06:03:18.000Z,18.25
2017-06-26T06:04:17.684Z,18.21
2017-06-26T06:05:17.663Z,18.22
2017-06-26T06:06:17.646Z,18.31
2017-06-26T06:07:17.962Z,18.34
2017-06-26T06:08:17.940Z,18.25
2017-06-26T06:09:17.622Z,18.18
2017-06-26T06:10:17.619Z,18.22
2017-06-26T06:11:17.297Z,18.29
2017-06-26T06:12:17.291Z,18.28
2017-06-26T06:13:17.902Z,18.27
2017-06-26T06:14:17.581Z,18.28
2017-06-26T06:15:17.878Z,18.28
2017-06-26T06:16:17.873Z,18.22
2017-06-26T06:17:17.230Z,18.21
2017-06-26T06:18:17.843Z,18.25
2017-06-26T06:19:17.837Z,18.21
2017-06-26T06:20:17.826Z,18.21
2017-06-26T06:21:17.821Z,18.21
2017-06-26T06:22:17.497Z,18.19
2017-06-26T06:23:17.490Z,18.33
2017-06-26T06:24:17.799Z,18.29
2017-06-26T06:25:17.796Z,18.25
2017-06-26T06:26:17.767Z,18.27
2017-06-26T06:27:17.758Z,18.22
2017-06-26T06:28:17.126Z,18.15
2017-06-26T06:29:17.772Z,18.15
2017-06-26T06:30:17.743Z,18.15
2017-06-26T06:31:17.410Z,18.12
2017-06-26T06:32:17.708Z,18.15
2017-06-26T06:33:17.409Z,18.18
2017-06-26T06:34:17.690Z,18.13
2017-06-26T06:35:17.062Z,18.1
2017-06-26T06:36:17.696Z,18.1
2017-06-26T06:37:17.350Z,18.12
2017-06-26T06:38:17.336Z,17.99
2017-06-26T06:39:17.325Z,17.99
2017-06-26T06:40:17.636Z,18
2017-06-26T06:41:17.626Z,17.97
2017-06-26T06:42:17.301Z,17.94
2017-06-26T06:43:16.976Z,17.89
2017-06-26T06:44:17.283Z,17.91
2017-06-26T06:45:17.605Z,17.94
2017-06-26T06:46:17.577Z,17.95
2017-06-26T06:47:17.563Z,17.85
2017-06-26T06:48:17.241Z,17.91
2017-06-26T06:49:17.550Z,17.84
2017-06-26T06:50:17.547Z,17.91
2017-06-26T06:51:17.208Z,17.97
2017-06-26T06:52:17.509Z,18.04
2017-06-26T06:53:17.189Z,18.09
2017-06-26T06:54:17.496Z,18.15
2017-06-26T06:55:17.484Z,18.22
2017-06-26T06:56:17.475Z,18.19
2017-06-26T06:57:17.463Z,18.27
2017-06-26T06:58:17.455Z,18.34
2017-06-26T06:59:17.441Z,18.42
2017-06-26T07:00:17.433Z,18.4
2017-06-26T07:01:17.110Z,18.47
2017-06-26T07:02:17.110Z,18.54
2017-06-26T07:03:17.407Z,18.46
2017-06-26T07:04:17.120Z,18.49
2017-06-26T07:05:17.075Z,18.44
2017-06-26T07:06:16.752Z,18.46
2017-06-26T07:07:17.053Z,18.49
2017-06-26T07:08:17.358Z,18.49
2017-06-26T07:09:17.036Z,18.54
2017-06-26T07:10:17.337Z,18.44
2017-06-26T07:11:17.015Z,18.5
2017-06-26T07:12:17.006Z,18.49
2017-06-26T07:13:16.688Z,18.62
2017-06-26T07:14:17.302Z,18.61
2017-06-26T07:15:16.975Z,18.79
2017-06-26T07:16:16.967Z,18.76
2017-06-26T07:17:17.272Z,18.86
2017-06-26T07:18:17.263Z,18.76
2017-06-26T07:19:17.252Z,18.84
2017-06-26T07:20:17.246Z,18.79
2017-06-26T07:21:16.927Z,18.9
2017-06-26T07:22:16.913Z,18.91
2017-06-26T07:23:17.216Z,18.91
2017-06-26T07:24:17.218Z,18.92
2017-06-26T07:25:16.891Z,19.08
2017-06-26T07:26:16.928Z,19.15
2017-06-26T07:27:17.202Z,19.35
2017-06-26T07:28:16.546Z,19.35
2017-06-26T07:29:16.849Z,19.36
2017-06-26T07:30:16.528Z,19.46
2017-06-26T07:31:17.198Z,19.58
2017-06-26T07:32:17.135Z,19.72
2017-06-26T07:33:16.529Z,19.9
2017-06-26T07:34:17.122Z,19.8
2017-06-26T07:35:17.115Z,19.68
2017-06-26T07:36:16.479Z,19.61
2017-06-26T07:37:16.782Z,19.78
2017-06-26T07:38:16.777Z,19.94
2017-06-26T07:39:17.128Z,19.95
2017-06-26T07:40:16.970Z,19.95
2017-06-26T07:41:17.061Z,19.98
2017-06-26T07:42:16.744Z,20.83
2017-06-26T07:43:17.049Z,21.11
2017-06-26T07:44:16.729Z,21.94
2017-06-26T07:45:16.720Z,22.29
2017-06-26T07:46:16.717Z,23.2
2017-06-26T07:47:17.021Z,23.27
2017-06-26T07:48:16.705Z,24.05
2017-06-26T07:49:16.693Z,23.95
2017-06-26T07:50:17.006Z,23.49
2017-06-26T07:51:16.688Z,22.92
2017-06-26T07:52:16.689Z,22.35
2017-06-26T07:53:17.006Z,22.59
2017-06-26T07:54:16.988Z,22.72
2017-06-26T07:55:16.354Z,22.35
2017-06-26T07:56:16.710Z,22.06
2017-06-26T07:57:16.651Z,23.04
2017-06-26T07:58:16.649Z,23.8
2017-06-26T07:59:16.979Z,23.6
2017-06-26T08:00:16.638Z,23.49
2017-06-26T08:01:16.947Z,24.1
2017-06-26T08:02:16.629Z,24.77
2017-06-26T08:03:16.939Z,25.28
2017-06-26T08:04:16.630Z,25.43
2017-06-26T08:05:16.301Z,25.72
2017-06-26T08:06:16.347Z,25.07
2017-06-26T08:07:16.922Z,24.76
2017-06-26T08:08:16.608Z,25.01
2017-06-26T08:09:16.912Z,24.94
2017-06-26T08:10:16.599Z,24.6
2017-06-26T08:11:16.278Z,23.95
2017-06-26T08:12:16.277Z,23.53
2017-06-26T08:13:16.900Z,23.15
2017-06-26T08:14:16.268Z,22.83
2017-06-26T08:15:16.887Z,22.54
2017-06-26T08:16:16.916Z,22.16
2017-06-26T08:17:16.258Z,21.82
2017-06-26T08:18:16.253Z,21.71
2017-06-26T08:19:16.559Z,21.85
2017-06-26T08:20:16.559Z,21.98
2017-06-26T08:21:16.866Z,21.97
2017-06-26T08:22:16.549Z,21.9
2017-06-26T08:23:16.236Z,21.67
2017-06-26T08:24:16.871Z,22.06
2017-06-26T08:25:16.853Z,21.95
2017-06-26T08:26:16.844Z,22.01
2017-06-26T08:27:16.838Z,22.1
2017-06-26T08:28:16.522Z,21.94
2017-06-26T08:29:16.843Z,21.61
2017-06-26T08:30:16.537Z,21.34
2017-06-26T08:31:16.827Z,21.09
2017-06-26T08:32:16.866Z,20.9
2017-06-26T08:33:16.805Z,20.69
2017-06-26T08:34:16.489Z,20.5
2017-06-26T08:35:16.175Z,20.39
2017-06-26T08:36:16.478Z,20.23
2017-06-26T08:37:16.501Z,20.08
2017-06-26T08:38:16.156Z,19.95
2017-06-26T08:39:16.822Z,20.49
2017-06-26T08:40:16.458Z,21.41
2017-06-26T08:41:16.455Z,22.47
2017-06-26T08:42:16.767Z,23.43
2017-06-26T08:43:16.753Z,24.05
2017-06-26T08:44:16.436Z,24.45
2017-06-26T08:45:16.749Z,24.92
2017-06-26T08:46:16.440Z,25.17
2017-06-26T08:47:16.735Z,25.74
2017-06-26T08:48:16.731Z,25.99
2017-06-26T08:49:16.411Z,26.36
2017-06-26T08:50:16.784Z,26.54
2017-06-26T08:51:16.093Z,26.65
2017-06-26T08:52:16.720Z,26.68
2017-06-26T08:53:16.403Z,26.86
2017-06-26T08:54:16.714Z,26.52
2017-06-26T08:55:16.710Z,25.94
2017-06-26T08:56:16.716Z,25.19
2017-06-26T08:57:16.707Z,24.39
2017-06-26T08:58:16.704Z,23.87
2017-06-26T08:59:16.388Z,23.43
2017-06-26T09:00:16.704Z,22.86
2017-06-26T09:01:16.695Z,22.52
2017-06-26T09:02:16.382Z,22.12
2017-06-26T09:03:16.742Z,21.92
2017-06-26T09:04:16.374Z,22.04
2017-06-26T09:05:16.680Z,21.99
2017-06-26T09:06:16.675Z,22.14
2017-06-26T09:07:16.672Z,22.28
2017-06-26T09:08:16.354Z,22.35
2017-06-26T09:09:16.359Z,22.44
2017-06-26T09:10:16.666Z,22.96
2017-06-26T09:11:16.662Z,22.59
2017-06-26T09:12:16.661Z,22.1
2017-06-26T09:13:16.339Z,21.83
2017-06-26T09:14:16.332Z,22.07
2017-06-26T09:15:16.330Z,22.62
2017-06-26T09:16:16.635Z,23.17
2017-06-26T09:17:16.324Z,23.64
2017-06-26T09:18:16.634Z,24.22
2017-06-26T09:19:16.320Z,24.53
2017-06-26T09:20:16.627Z,24.91
2017-06-26T09:21:16.001Z,25.34
2017-06-26T09:22:16.629Z,25.82
2017-06-26T09:23:16.656Z,25.24
2017-06-26T09:24:16.313Z,24.54
2017-06-26T09:25:16.638Z,24.05
2017-06-26T09:26:16.614Z,23.55
2017-06-26T09:27:16.613Z,23.12
2017-06-26T09:28:16.307Z,22.57
2017-06-26T09:29:16.298Z,22.87
2017-06-26T09:30:16.306Z,23.82
2017-06-26T09:31:16.291Z,24.61
2017-06-26T09:32:16.604Z,25.24
2017-06-26T09:33:16.610Z,25.54
2017-06-26T09:34:15.978Z,26.15
2017-06-26T09:35:16.288Z,26.43
2017-06-26T09:36:16.288Z,26.76
2017-06-26T09:37:16.290Z,26.02
2017-06-26T09:38:16.594Z,25.65
2017-06-26T09:39:16.283Z,25.24
2017-06-26T09:40:16.595Z,24.94
2017-06-26T09:41:16.281Z,25.68
2017-06-26T09:42:16.284Z,25.47
2017-06-26T09:43:16.602Z,26.11
2017-06-26T09:44:16.342Z,26.02
2017-06-26T09:45:16.282Z,25.35
2017-06-26T09:46:16.289Z,24.52
2017-06-26T09:47:15.975Z,24.19
2017-06-26T09:48:15.963Z,24.31
2017-06-26T09:49:16.593Z,24.54
2017-06-26T09:50:16.589Z,24.27
2017-06-26T09:51:16.586Z,23.89
2017-06-26T09:52:15.967Z,23.64
2017-06-26T09:53:16.292Z,24.01
2017-06-26T09:54:16.585Z,24.68
2017-06-26T09:55:16.269Z,25.22
2017-06-26T09:56:16.585Z,25.06
2017-06-26T09:57:16.274Z,24.45
2017-06-26T09:58:16.588Z,23.98
2017-06-26T09:59:15.968Z,23.46
2017-06-26T10:00:16.264Z,23.17
2017-06-26T10:01:16.265Z,22.83
2017-06-26T10:02:16.265Z,22.62
2017-06-26T10:03:16.258Z,22.25
2017-06-26T10:04:16.261Z,21.98
2017-06-26T10:05:16.254Z,21.75
2017-06-26T10:06:16.563Z,21.98
2017-06-26T10:07:16.565Z,22.84
2017-06-26T10:08:15.931Z,23.52
2017-06-26T10:09:16.244Z,24.14
2017-06-26T10:10:16.272Z,24.79
2017-06-26T10:11:16.268Z,24.76
2017-06-26T10:12:16.549Z,24.38
2017-06-26T10:13:15.925Z,23.98
2017-06-26T10:14:16.237Z,23.95
2017-06-26T10:15:15.917Z,24.34
2017-06-26T10:16:16.559Z,24.04
2017-06-26T10:17:15.920Z,23.53
2017-06-26T10:18:16.227Z,23.11
2017-06-26T10:19:16.223Z,22.83
2017-06-26T10:20:16.218Z,22.65
2017-06-26T10:21:16.219Z,23.29
2017-06-26T10:22:16.210Z,23.42
2017-06-26T10:23:15.906Z,23.77
2017-06-26T10:24:15.893Z,24.01
2017-06-26T10:25:16.210Z,24.64
2017-06-26T10:26:16.519Z,25.13
2017-06-26T10:27:15.889Z,25.83
2017-06-26T10:28:16.202Z,26.12
2017-06-26T10:29:16.202Z,26.42
2017-06-26T10:30:16.516Z,26.46
2017-06-26T10:31:16.202Z,26.67
2017-06-26T10:32:16.203Z,26.99
2017-06-26T10:33:16.194Z,26.95
2017-06-26T10:34:16.201Z,27.02
2017-06-26T10:35:16.515Z,26.29
2017-06-26T10:36:16.208Z,25.43
2017-06-26T10:37:15.887Z,25.09
2017-06-26T10:38:16.517Z,24.68
2017-06-26T10:39:16.205Z,24.68
2017-06-26T10:40:15.894Z,24.69
2017-06-26T10:41:16.526Z,24.49
2017-06-26T10:42:16.202Z,24.92
2017-06-26T10:43:16.518Z,25.16
2017-06-26T10:44:16.203Z,25.77
2017-06-26T10:45:16.519Z,26.35
2017-06-26T10:46:16.215Z,26.27
2017-06-26T10:47:16.520Z,26.37
2017-06-26T10:48:15.903Z,26.8
2017-06-26T10:49:16.208Z,26.81
2017-06-26T10:50:16.519Z,26.91
2017-06-26T10:51:16.521Z,26.98
2017-06-26T10:52:15.907Z,27.23
2017-06-26T10:53:16.217Z,27.41
2017-06-26T10:54:16.221Z,27.58
2017-06-26T10:55:16.536Z,27.47
2017-06-26T10:56:16.531Z,27.61
2017-06-26T10:57:16.229Z,27.77
2017-06-26T10:58:15.915Z,27.76
2017-06-26T10:59:16.240Z,27.8
2017-06-26T11:00:16.234Z,27.99
2017-06-26T11:01:16.238Z,28.35
2017-06-26T11:02:16.236Z,27.62
2017-06-26T11:03:16.240Z,27.1
2017-06-26T11:04:16.244Z,26.47
2017-06-26T11:05:15.935Z,26.04
2017-06-26T11:06:16.557Z,26.32
2017-06-26T11:07:16.248Z,26.42
2017-06-26T11:08:16.565Z,26.92
2017-06-26T11:09:16.565Z,27.31
2017-06-26T11:10:16.568Z,27.74
2017-06-26T11:11:16.572Z,27.8
2017-06-26T11:12:16.608Z,27.88
2017-06-26T11:13:16.260Z,27.71
2017-06-26T11:14:16.573Z,27.96
2017-06-26T11:15:16.575Z,28.36
2017-06-26T11:16:16.266Z,28.35
2017-06-26T11:17:16.679Z,27.85
2017-06-26T11:18:16.281Z,27.14
2017-06-26T11:19:16.591Z,26.86
2017-06-26T11:20:15.976Z,27.26
2017-06-26T11:21:16.597Z,27.33
2017-06-26T11:22:16.602Z,28.01
2017-06-26T11:23:16.598Z,28.32
2017-06-26T11:24:16.642Z,28.46
2017-06-26T11:25:16.610Z,28.36
2017-06-26T11:26:15.984Z,28.29
2017-06-26T11:27:16.295Z,28.46
2017-06-26T11:28:16.301Z,28.5
2017-06-26T11:29:16.306Z,28.14
2017-06-26T11:30:16.307Z,28.4
2017-06-26T11:31:16.311Z,28.44
2017-06-26T11:32:16.321Z,28.25
2017-06-26T11:33:16.313Z,27.86
2017-06-26T11:34:16.324Z,27.96
2017-06-26T11:35:16.636Z,27.91
2017-06-26T11:36:16.324Z,28.13
2017-06-26T11:37:16.645Z,28.33
2017-06-26T11:38:16.330Z,28.47
2017-06-26T11:39:16.335Z,28.69
2017-06-26T11:40:16.852Z,28.53
2017-06-26T11:41:16.340Z,28.7
2017-06-26T11:42:16.345Z,28.81
2017-06-26T11:43:16.350Z,29.19
2017-06-26T11:44:16.670Z,29.23
2017-06-26T11:45:16.668Z,29.55
2017-06-26T11:46:16.675Z,29.53
2017-06-26T11:47:16.367Z,29.56
2017-06-26T11:48:16.681Z,29.52
2017-06-26T11:49:16.372Z,29.62
2017-06-26T11:50:16.374Z,29.5
2017-06-26T11:51:16.710Z,29.38
2017-06-26T11:52:16.068Z,29.35
2017-06-26T11:53:16.071Z,29.15
2017-06-26T11:54:16.387Z,28.91
2017-06-26T11:55:16.711Z,29.18
2017-06-26T11:56:16.400Z,29.55
2017-06-26T11:57:16.111Z,29.01
2017-06-26T11:58:16.721Z,28.69
2017-06-26T11:59:16.725Z,28.44
2017-06-26T12:00:16.416Z,28.8
2017-06-26T12:01:16.413Z,29.35
2017-06-26T12:02:16.108Z,29.72
2017-06-26T12:03:16.736Z,29.47
2017-06-26T12:04:16.736Z,29.43
2017-06-26T12:05:16.743Z,29.44
2017-06-26T12:06:16.123Z,29.19
2017-06-26T12:07:16.441Z,28.65
2017-06-26T12:08:16.125Z,28.54
2017-06-26T12:09:16.749Z,28.54
2017-06-26T12:10:16.135Z,28.7
2017-06-26T12:11:16.773Z,28.58
2017-06-26T12:12:16.454Z,28.35
2017-06-26T12:13:16.451Z,28.62
2017-06-26T12:14:16.772Z,28.68
2017-06-26T12:15:16.153Z,28.85
2017-06-26T12:16:16.777Z,28.91
2017-06-26T12:17:16.466Z,28.91
2017-06-26T12:18:16.474Z,28.72
2017-06-26T12:19:16.476Z,28.21
2017-06-26T12:20:16.482Z,28.25
2017-06-26T12:21:16.791Z,28.53
2017-06-26T12:22:16.793Z,29.13
2017-06-26T12:23:16.486Z,29.11
2017-06-26T12:24:16.487Z,29.34
2017-06-26T12:25:16.494Z,29.66
2017-06-26T12:26:16.495Z,30.02
2017-06-26T12:27:16.811Z,30.31
2017-06-26T12:28:16.506Z,30.14
2017-06-26T12:29:16.812Z,29.68
2017-06-26T12:30:16.824Z,29.59
2017-06-26T12:31:16.830Z,29.59
2017-06-26T12:32:16.516Z,29.74
2017-06-26T12:33:16.830Z,29.94
2017-06-26T12:34:16.835Z,29.99
2017-06-26T12:35:16.211Z,30.09
2017-06-26T12:36:16.534Z,30.09
2017-06-26T12:37:16.849Z,30.11
2017-06-26T12:38:16.537Z,30.3
2017-06-26T12:39:16.542Z,30.37
2017-06-26T12:40:16.555Z,30.36
2017-06-26T12:41:16.557Z,30.43
2017-06-26T12:42:16.565Z,30.31
2017-06-26T12:43:16.243Z,30.38
2017-06-26T12:44:16.876Z,30.23
2017-06-26T12:45:16.882Z,29.6
2017-06-26T12:46:16.572Z,29.19
2017-06-26T12:47:16.585Z,28.66
2017-06-26T12:48:16.597Z,28.19
2017-06-26T12:49:16.587Z,28.01
2017-06-26T12:50:16.276Z,28.1
2017-06-26T12:51:16.591Z,28.62
2017-06-26T12:52:16.593Z,29.16
2017-06-26T12:53:16.628Z,29.49
2017-06-26T12:54:16.293Z,29.25
2017-06-26T12:55:16.605Z,28.96